MOL Gratitude — VRJU7 — position and weather

sailwx.info

Track history (hours):
 
Tides and Currents Weather Stations Pressure Air Temp Water Temp Dewpoint Dewpoint Depression Visibility Wind Speed Wind Dir Waves Ship Positions

MOL Gratitude

Last reported at 2018-Jan-23 00:07 UTC. Time now 2018-Jan-24 04:06 UTC.
Position N 39°11' W 073°57'.

Length 275 m; draft 11.7 m.

Type: Ship (hazmat cat A). MMSI: 477462400.

Date/timePositionNaut miles runAvg speedWind from/ knotsBaromVisibWave heightAir tempDewpointWater temp
2018-Jan-23 00:07N 39°11' W 073°57'219.1
2018-Jan-22 23:59N 39°13' W 073°57'1019.1
2018-Jan-22 23:28N 39°23' W 073°54'919.1
2018-Jan-22 22:59N 39°32' W 073°52'1019.1
2018-Jan-22 22:29N 39°42' W 073°50'919.2
2018-Jan-22 22:00N 39°51' W 073°49'1818.3
2018-Jan-22 21:01N 40°09' W 073°49'111.2
2018-Jan-22 20:57N 40°10' W 073°49'5 9.9
2018-Jan-22 20:29N 40°14' W 073°49'5 9.8
2018-Jan-22 19:55N 40°20' W 073°49'4 9.8
2018-Jan-22 19:29N 40°24' W 073°49'4 8.0
2018-Jan-22 19:00N 40°27' W 073°51'610.0
2018-Jan-22 18:26N 40°30' W 073°57'614.6
2018-Jan-22 18:00N 40°35' W 074°02'5 9.7
2018-Jan-22 17:30N 40°39' W 074°07'2 3.5
2018-Jan-22 17:00N 40°40' W 074°08'1 1.4
2018-Jan-22 16:28N 40°41' W 074°09'0 0.0
2018-Jan-22 15:58N 40°41' W 074°09'0 0.0
2018-Jan-22 15:28N 40°41' W 074°09'0 0.0
2018-Jan-22 14:49N 40°41' W 074°09'0 0.0
2018-Jan-22 14:28N 40°41' W 074°09'0 0.0
2018-Jan-22 13:58N 40°41' W 074°09'0 0.0
2018-Jan-22 13:30N 40°41' W 074°09'0 0.0
2018-Jan-22 12:59N 40°41' W 074°09'0 0.0
2018-Jan-22 12:29N 40°41' W 074°09'0 0.0
2018-Jan-22 11:56N 40°41' W 074°09'0 0.0
2018-Jan-22 11:29N 40°41' W 074°09'0 0.0
2018-Jan-22 10:58N 40°41' W 074°09'0 0.0
2018-Jan-22 10:30N 40°41' W 074°09'0 0.0
2018-Jan-22 10:00N 40°41' W 074°09'0 0.0
2018-Jan-22 09:30N 40°41' W 074°09'0 0.0
2018-Jan-22 09:00N 40°41' W 074°09'0 0.0
2018-Jan-22 08:30N 40°41' W 074°09'0 0.0
2018-Jan-22 08:00N 40°41' W 074°09'0 0.0
2018-Jan-22 07:30N 40°41' W 074°09'0 0.0
2018-Jan-22 07:00N 40°41' W 074°09'0 0.0
2018-Jan-22 06:30N 40°41' W 074°09'0 0.0
2018-Jan-22 06:00N 40°41' W 074°09'0 0.0
2018-Jan-22 05:30N 40°41' W 074°09'0 0.0
2018-Jan-22 04:57N 40°41' W 074°09'0 0.0
2018-Jan-22 04:30N 40°41' W 074°09'0 0.0
2018-Jan-22 04:00N 40°41' W 074°09'0 0.0
2018-Jan-22 03:30N 40°41' W 074°09'0 0.0
2018-Jan-22 03:00N 40°41' W 074°09'0 0.0
2018-Jan-22 02:30N 40°41' W 074°09'0 0.0
2018-Jan-22 02:00N 40°41' W 074°09'0 0.0
2018-Jan-22 01:30N 40°41' W 074°09'0 0.0
2018-Jan-22 00:57N 40°41' W 074°09'0 0.0
2018-Jan-22 00:30N 40°41' W 074°09'0 0.0
2018-Jan-21 23:56N 40°41' W 074°09'0 0.0
2018-Jan-21 23:30N 40°41' W 074°09'0 0.0
2018-Jan-21 23:00N 40°41' W 074°09'0 0.0
2018-Jan-21 22:30N 40°41' W 074°09'0 0.0
2018-Jan-21 22:00N 40°41' W 074°09'0 0.0
2018-Jan-21 21:30N 40°41' W 074°09'0 0.0
2018-Jan-21 21:00N 40°41' W 074°09'0 0.0
2018-Jan-21 20:30N 40°41' W 074°09'0 0.0
2018-Jan-21 20:00N 40°41' W 074°09'0 0.0
2018-Jan-21 19:00N 40°41' W 074°09'0 0.0
2018-Jan-21 18:30N 40°41' W 074°09'0 0.0
2018-Jan-21 18:00N 40°41' W 074°09'0 0.0
2018-Jan-21 17:30N 40°41' W 074°09'0 0.0
2018-Jan-21 17:00N 40°41' W 074°09'0 0.0
2018-Jan-21 16:30N 40°41' W 074°09'0 0.0
2018-Jan-21 16:00N 40°41' W 074°09'0 0.0
2018-Jan-21 15:30N 40°41' W 074°09'0 0.0
2018-Jan-21 15:00N 40°41' W 074°09'0 0.0
2018-Jan-21 14:30N 40°41' W 074°09'0 0.0
2018-Jan-21 14:00N 40°41' W 074°09'0 0.0
2018-Jan-21 13:30N 40°41' W 074°09'0 0.0
2018-Jan-21 13:00N 40°41' W 074°09'0 0.0
2018-Jan-21 12:29N 40°41' W 074°09'0 0.0
2018-Jan-21 11:59N 40°41' W 074°09'0 0.8
2018-Jan-21 11:30N 40°40' W 074°08'2 3.5
2018-Jan-21 11:00N 40°39' W 074°09'3 6.5
2018-Jan-21 10:30N 40°39' W 074°05'4 7.1
2018-Jan-21 10:00N 40°36' W 074°02'611.7
2018-Jan-21 09:30N 40°31' W 073°59'510.9
2018-Jan-21 09:00N 40°28' W 073°52'5 9.1
2018-Jan-21 08:30N 40°27' W 073°47'5 9.7
2018-Jan-21 08:00N 40°27' W 073°40'4 9.0
2018-Jan-21 07:30N 40°28' W 073°34'  
Track history (hours):
 
Tides and Currents Weather Stations Pressure Air Temp Water Temp Dewpoint Dewpoint Depression Visibility Wind Speed Wind Dir Waves Ship Positions

MOL Gratitude

Last reported at 2018-Jan-23 00:07 UTC. Time now 2018-Jan-24 04:06 UTC.
Position N 39°11' W 073°57'.

Length 275 m; draft 11.7 m.

Type: Ship (hazmat cat A). MMSI: 477462400.

Date/timePositionNaut miles runAvg speedWind from/ knotsBaromVisibWave heightAir tempDewpointWater temp
2018-Jan-23 00:07N 39°11' W 073°57'219.1
2018-Jan-22 23:59N 39°13' W 073°57'1019.1
2018-Jan-22 23:28N 39°23' W 073°54'919.1
2018-Jan-22 22:59N 39°32' W 073°52'1019.1
2018-Jan-22 22:29N 39°42' W 073°50'919.2
2018-Jan-22 22:00N 39°51' W 073°49'1818.3
2018-Jan-22 21:01N 40°09' W 073°49'111.2
2018-Jan-22 20:57N 40°10' W 073°49'5 9.9
2018-Jan-22 20:29N 40°14' W 073°49'5 9.8
2018-Jan-22 19:55N 40°20' W 073°49'4 9.8
2018-Jan-22 19:29N 40°24' W 073°49'4 8.0
2018-Jan-22 19:00N 40°27' W 073°51'610.0
2018-Jan-22 18:26N 40°30' W 073°57'614.6
2018-Jan-22 18:00N 40°35' W 074°02'5 9.7
2018-Jan-22 17:30N 40°39' W 074°07'2 3.5
2018-Jan-22 17:00N 40°40' W 074°08'1 1.4
2018-Jan-22 16:28N 40°41' W 074°09'0 0.0
2018-Jan-22 15:58N 40°41' W 074°09'0 0.0
2018-Jan-22 15:28N 40°41' W 074°09'0 0.0
2018-Jan-22 14:49N 40°41' W 074°09'0 0.0
2018-Jan-22 14:28N 40°41' W 074°09'0 0.0
2018-Jan-22 13:58N 40°41' W 074°09'0 0.0
2018-Jan-22 13:30N 40°41' W 074°09'0 0.0
2018-Jan-22 12:59N 40°41' W 074°09'0 0.0
2018-Jan-22 12:29N 40°41' W 074°09'0 0.0
2018-Jan-22 11:56N 40°41' W 074°09'0 0.0
2018-Jan-22 11:29N 40°41' W 074°09'0 0.0
2018-Jan-22 10:58N 40°41' W 074°09'0 0.0
2018-Jan-22 10:30N 40°41' W 074°09'0 0.0
2018-Jan-22 10:00N 40°41' W 074°09'0 0.0
2018-Jan-22 09:30N 40°41' W 074°09'0 0.0
2018-Jan-22 09:00N 40°41' W 074°09'0 0.0
2018-Jan-22 08:30N 40°41' W 074°09'0 0.0
2018-Jan-22 08:00N 40°41' W 074°09'0 0.0
2018-Jan-22 07:30N 40°41' W 074°09'0 0.0
2018-Jan-22 07:00N 40°41' W 074°09'0 0.0
2018-Jan-22 06:30N 40°41' W 074°09'0 0.0
2018-Jan-22 06:00N 40°41' W 074°09'0 0.0
2018-Jan-22 05:30N 40°41' W 074°09'0 0.0
2018-Jan-22 04:57N 40°41' W 074°09'0 0.0
2018-Jan-22 04:30N 40°41' W 074°09'0 0.0
2018-Jan-22 04:00N 40°41' W 074°09'0 0.0
2018-Jan-22 03:30N 40°41' W 074°09'0 0.0
2018-Jan-22 03:00N 40°41' W 074°09'0 0.0
2018-Jan-22 02:30N 40°41' W 074°09'0 0.0
2018-Jan-22 02:00N 40°41' W 074°09'0 0.0
2018-Jan-22 01:30N 40°41' W 074°09'0 0.0
2018-Jan-22 00:57N 40°41' W 074°09'0 0.0
2018-Jan-22 00:30N 40°41' W 074°09'0 0.0
2018-Jan-21 23:56N 40°41' W 074°09'0 0.0
2018-Jan-21 23:30N 40°41' W 074°09'0 0.0
2018-Jan-21 23:00N 40°41' W 074°09'0 0.0
2018-Jan-21 22:30N 40°41' W 074°09'0 0.0
2018-Jan-21 22:00N 40°41' W 074°09'0 0.0
2018-Jan-21 21:30N 40°41' W 074°09'0 0.0
2018-Jan-21 21:00N 40°41' W 074°09'0 0.0
2018-Jan-21 20:30N 40°41' W 074°09'0 0.0
2018-Jan-21 20:00N 40°41' W 074°09'0 0.0
2018-Jan-21 19:00N 40°41' W 074°09'0 0.0
2018-Jan-21 18:30N 40°41' W 074°09'0 0.0
2018-Jan-21 18:00N 40°41' W 074°09'0 0.0
2018-Jan-21 17:30N 40°41' W 074°09'0 0.0
2018-Jan-21 17:00N 40°41' W 074°09'0 0.0
2018-Jan-21 16:30N 40°41' W 074°09'0 0.0
2018-Jan-21 16:00N 40°41' W 074°09'0 0.0
2018-Jan-21 15:30N 40°41' W 074°09'0 0.0
2018-Jan-21 15:00N 40°41' W 074°09'0 0.0
2018-Jan-21 14:30N 40°41' W 074°09'0 0.0
2018-Jan-21 14:00N 40°41' W 074°09'0 0.0
2018-Jan-21 13:30N 40°41' W 074°09'0 0.0
2018-Jan-21 13:00N 40°41' W 074°09'0 0.0
2018-Jan-21 12:29N 40°41' W 074°09'0 0.0
2018-Jan-21 11:59N 40°41' W 074°09'0 0.8
2018-Jan-21 11:30N 40°40' W 074°08'2 3.5
2018-Jan-21 11:00N 40°39' W 074°09'3 6.5
2018-Jan-21 10:30N 40°39' W 074°05'4 7.1
2018-Jan-21 10:00N 40°36' W 074°02'611.7
2018-Jan-21 09:30N 40°31' W 073°59'510.9
2018-Jan-21 09:00N 40°28' W 073°52'5 9.1
2018-Jan-21 08:30N 40°27' W 073°47'5 9.7
2018-Jan-21 08:00N 40°27' W 073°40'4 9.0
2018-Jan-21 07:30N 40°28' W 073°34'  

Dump ship's entire track history